sensor_id;sensor_type;location;lat;lon;timestamp;P1;durP1;ratioP1;P2;durP2;ratioP2
37411;SDS011;23278;52.110;6.050;2023-12-07T00:01:55;9.45;;;6.03;;
37411;SDS011;23278;52.110;6.050;2023-12-07T00:04:21;6.20;;;4.53;;
37411;SDS011;23278;52.110;6.050;2023-12-07T00:06:47;7.43;;;5.82;;
37411;SDS011;23278;52.110;6.050;2023-12-07T00:09:13;5.67;;;4.27;;
37411;SDS011;23278;52.110;6.050;2023-12-07T00:11:39;6.47;;;5.13;;
37411;SDS011;23278;52.110;6.050;2023-12-07T00:14:05;7.65;;;5.50;;
37411;SDS011;23278;52.110;6.050;2023-12-07T00:16:31;7.50;;;4.90;;
37411;SDS011;23278;52.110;6.050;2023-12-07T00:18:57;7.47;;;5.28;;
37411;SDS011;23278;52.110;6.050;2023-12-07T00:21:23;8.00;;;5.47;;
37411;SDS011;23278;52.110;6.050;2023-12-07T00:23:49;7.07;;;5.30;;
37411;SDS011;23278;52.110;6.050;2023-12-07T00:26:15;13.48;;;7.35;;
37411;SDS011;23278;52.110;6.050;2023-12-07T00:28:42;8.70;;;7.00;;
37411;SDS011;23278;52.110;6.050;2023-12-07T00:31:09;9.48;;;7.40;;
37411;SDS011;23278;52.110;6.050;2023-12-07T00:33:36;7.80;;;6.35;;
37411;SDS011;23278;52.110;6.050;2023-12-07T00:36:01;7.93;;;6.45;;
37411;SDS011;23278;52.110;6.050;2023-12-07T00:38:27;10.82;;;8.45;;
37411;SDS011;23278;52.110;6.050;2023-12-07T00:40:53;9.13;;;6.90;;
37411;SDS011;23278;52.110;6.050;2023-12-07T00:43:19;8.07;;;6.65;;
37411;SDS011;23278;52.110;6.050;2023-12-07T00:45:45;7.72;;;6.13;;
37411;SDS011;23278;52.110;6.050;2023-12-07T00:48:11;7.93;;;5.75;;
37411;SDS011;23278;52.110;6.050;2023-12-07T00:50:37;8.48;;;6.13;;
37411;SDS011;23278;52.110;6.050;2023-12-07T00:53:03;8.10;;;5.57;;
37411;SDS011;23278;52.110;6.050;2023-12-07T00:55:29;7.25;;;5.63;;
37411;SDS011;23278;52.110;6.050;2023-12-07T00:57:55;6.45;;;5.07;;
37411;SDS011;23278;52.110;6.050;2023-12-07T01:00:20;8.07;;;5.55;;
37411;SDS011;23278;52.110;6.050;2023-12-07T01:02:46;6.20;;;5.13;;
37411;SDS011;23278;52.110;6.050;2023-12-07T01:05:12;6.20;;;5.30;;
37411;SDS011;23278;52.110;6.050;2023-12-07T01:07:38;7.57;;;6.10;;
37411;SDS011;23278;52.110;6.050;2023-12-07T01:10:04;6.68;;;4.90;;
37411;SDS011;23278;52.110;6.050;2023-12-07T01:12:31;6.57;;;5.40;;
37411;SDS011;23278;52.110;6.050;2023-12-07T01:14:57;6.90;;;5.83;;
37411;SDS011;23278;52.110;6.050;2023-12-07T01:17:23;6.63;;;5.32;;
37411;SDS011;23278;52.110;6.050;2023-12-07T01:19:48;6.53;;;4.38;;
37411;SDS011;23278;52.110;6.050;2023-12-07T01:22:14;9.18;;;6.32;;
37411;SDS011;23278;52.110;6.050;2023-12-07T01:24:40;6.15;;;5.07;;
37411;SDS011;23278;52.110;6.050;2023-12-07T01:27:06;8.07;;;5.40;;
37411;SDS011;23278;52.110;6.050;2023-12-07T01:29:32;8.10;;;5.80;;
37411;SDS011;23278;52.110;6.050;2023-12-07T01:31:58;7.17;;;5.10;;
37411;SDS011;23278;52.110;6.050;2023-12-07T01:34:23;7.53;;;4.63;;
37411;SDS011;23278;52.110;6.050;2023-12-07T01:36:49;7.87;;;5.40;;
37411;SDS011;23278;52.110;6.050;2023-12-07T01:39:15;7.10;;;4.53;;
37411;SDS011;23278;52.110;6.050;2023-12-07T01:41:41;8.43;;;4.67;;
37411;SDS011;23278;52.110;6.050;2023-12-07T01:44:08;6.82;;;5.05;;
37411;SDS011;23278;52.110;6.050;2023-12-07T01:46:34;6.67;;;4.83;;
37411;SDS011;23278;52.110;6.050;2023-12-07T01:49:01;6.33;;;4.63;;
37411;SDS011;23278;52.110;6.050;2023-12-07T01:51:27;8.53;;;4.67;;
37411;SDS011;23278;52.110;6.050;2023-12-07T01:53:54;6.63;;;4.40;;
37411;SDS011;23278;52.110;6.050;2023-12-07T01:56:20;5.87;;;4.33;;
37411;SDS011;23278;52.110;6.050;2023-12-07T01:58:49;6.97;;;5.17;;
37411;SDS011;23278;52.110;6.050;2023-12-07T02:01:16;7.60;;;5.17;;
37411;SDS011;23278;52.110;6.050;2023-12-07T02:03:42;5.93;;;4.50;;
37411;SDS011;23278;52.110;6.050;2023-12-07T02:06:08;6.43;;;4.38;;
37411;SDS011;23278;52.110;6.050;2023-12-07T02:08:36;7.17;;;5.03;;
37411;SDS011;23278;52.110;6.050;2023-12-07T02:11:09;7.67;;;4.80;;
37411;SDS011;23278;52.110;6.050;2023-12-07T02:13:36;6.93;;;5.30;;
37411;SDS011;23278;52.110;6.050;2023-12-07T02:16:04;7.73;;;5.33;;
37411;SDS011;23278;52.110;6.050;2023-12-07T02:18:44;6.00;;;4.60;;
37411;SDS011;23278;52.110;6.050;2023-12-07T02:21:37;7.53;;;5.10;;
37411;SDS011;23278;52.110;6.050;2023-12-07T02:24:06;11.15;;;4.50;;
37411;SDS011;23278;52.110;6.050;2023-12-07T02:26:34;7.57;;;5.43;;
37411;SDS011;23278;52.110;6.050;2023-12-07T02:29:01;6.37;;;3.83;;
37411;SDS011;23278;52.110;6.050;2023-12-07T02:31:27;7.07;;;4.27;;
37411;SDS011;23278;52.110;6.050;2023-12-07T02:33:53;8.20;;;4.57;;
37411;SDS011;23278;52.110;6.050;2023-12-07T02:36:20;9.00;;;5.13;;
37411;SDS011;23278;52.110;6.050;2023-12-07T02:38:50;5.13;;;4.27;;
37411;SDS011;23278;52.110;6.050;2023-12-07T02:41:18;6.17;;;5.07;;
37411;SDS011;23278;52.110;6.050;2023-12-07T02:43:45;5.63;;;4.80;;
37411;SDS011;23278;52.110;6.050;2023-12-07T02:46:12;9.37;;;4.83;;
37411;SDS011;23278;52.110;6.050;2023-12-07T02:48:38;7.90;;;4.40;;
37411;SDS011;23278;52.110;6.050;2023-12-07T02:51:04;6.83;;;5.37;;
37411;SDS011;23278;52.110;6.050;2023-12-07T02:53:30;7.17;;;4.97;;
37411;SDS011;23278;52.110;6.050;2023-12-07T02:55:56;7.40;;;5.50;;
37411;SDS011;23278;52.110;6.050;2023-12-07T02:58:21;7.17;;;4.87;;
37411;SDS011;23278;52.110;6.050;2023-12-07T03:00:48;8.00;;;5.40;;
37411;SDS011;23278;52.110;6.050;2023-12-07T03:03:13;7.00;;;4.80;;
37411;SDS011;23278;52.110;6.050;2023-12-07T03:05:39;7.20;;;4.67;;
37411;SDS011;23278;52.110;6.050;2023-12-07T03:08:05;7.17;;;4.80;;
37411;SDS011;23278;52.110;6.050;2023-12-07T03:10:31;11.30;;;5.07;;
37411;SDS011;23278;52.110;6.050;2023-12-07T03:12:57;5.63;;;3.83;;
37411;SDS011;23278;52.110;6.050;2023-12-07T03:15:23;7.87;;;5.33;;
37411;SDS011;23278;52.110;6.050;2023-12-07T03:17:49;6.47;;;4.73;;
37411;SDS011;23278;52.110;6.050;2023-12-07T03:20:16;8.30;;;5.23;;
37411;SDS011;23278;52.110;6.050;2023-12-07T03:22:42;8.03;;;5.77;;
37411;SDS011;23278;52.110;6.050;2023-12-07T03:25:08;7.80;;;4.53;;
37411;SDS011;23278;52.110;6.050;2023-12-07T03:27:34;8.27;;;6.00;;
37411;SDS011;23278;52.110;6.050;2023-12-07T03:30:00;6.17;;;4.07;;
37411;SDS011;23278;52.110;6.050;2023-12-07T03:32:26;8.37;;;4.70;;
37411;SDS011;23278;52.110;6.050;2023-12-07T03:34:52;6.43;;;4.73;;
37411;SDS011;23278;52.110;6.050;2023-12-07T03:37:18;6.30;;;4.30;;
37411;SDS011;23278;52.110;6.050;2023-12-07T03:39:44;6.03;;;4.47;;
37411;SDS011;23278;52.110;6.050;2023-12-07T03:42:10;7.20;;;4.70;;
37411;SDS011;23278;52.110;6.050;2023-12-07T03:44:36;7.80;;;5.23;;
37411;SDS011;23278;52.110;6.050;2023-12-07T03:47:02;8.17;;;5.13;;
37411;SDS011;23278;52.110;6.050;2023-12-07T03:49:27;7.83;;;5.00;;
37411;SDS011;23278;52.110;6.050;2023-12-07T03:51:54;6.93;;;4.57;;
37411;SDS011;23278;52.110;6.050;2023-12-07T03:54:20;8.83;;;5.13;;
37411;SDS011;23278;52.110;6.050;2023-12-07T03:56:46;6.23;;;4.63;;
37411;SDS011;23278;52.110;6.050;2023-12-07T03:59:11;6.67;;;4.80;;
37411;SDS011;23278;52.110;6.050;2023-12-07T04:01:37;7.27;;;5.20;;
37411;SDS011;23278;52.110;6.050;2023-12-07T04:04:03;7.90;;;5.67;;
37411;SDS011;23278;52.110;6.050;2023-12-07T04:06:30;5.73;;;4.03;;
37411;SDS011;23278;52.110;6.050;2023-12-07T04:08:56;6.63;;;4.80;;
37411;SDS011;23278;52.110;6.050;2023-12-07T04:11:22;7.90;;;5.80;;
37411;SDS011;23278;52.110;6.050;2023-12-07T04:13:48;7.30;;;5.40;;
37411;SDS011;23278;52.110;6.050;2023-12-07T04:16:14;7.77;;;5.73;;
37411;SDS011;23278;52.110;6.050;2023-12-07T04:18:40;7.10;;;5.37;;
37411;SDS011;23278;52.110;6.050;2023-12-07T04:21:07;7.17;;;4.87;;
37411;SDS011;23278;52.110;6.050;2023-12-07T04:23:32;6.30;;;5.07;;
37411;SDS011;23278;52.110;6.050;2023-12-07T04:25:58;7.17;;;4.87;;
37411;SDS011;23278;52.110;6.050;2023-12-07T04:28:25;9.57;;;5.27;;
37411;SDS011;23278;52.110;6.050;2023-12-07T04:30:50;6.97;;;5.90;;
37411;SDS011;23278;52.110;6.050;2023-12-07T04:33:16;7.73;;;4.80;;
37411;SDS011;23278;52.110;6.050;2023-12-07T04:35:42;6.50;;;5.33;;
37411;SDS011;23278;52.110;6.050;2023-12-07T04:38:08;6.90;;;5.37;;
37411;SDS011;23278;52.110;6.050;2023-12-07T04:40:34;7.70;;;4.97;;
37411;SDS011;23278;52.110;6.050;2023-12-07T04:43:00;6.20;;;4.80;;
37411;SDS011;23278;52.110;6.050;2023-12-07T04:45:26;7.10;;;5.37;;
37411;SDS011;23278;52.110;6.050;2023-12-07T04:47:52;5.93;;;4.37;;
37411;SDS011;23278;52.110;6.050;2023-12-07T04:50:18;5.53;;;3.90;;
37411;SDS011;23278;52.110;6.050;2023-12-07T04:52:44;5.80;;;4.10;;
37411;SDS011;23278;52.110;6.050;2023-12-07T04:55:10;4.97;;;3.60;;
37411;SDS011;23278;52.110;6.050;2023-12-07T04:57:36;7.40;;;5.90;;
37411;SDS011;23278;52.110;6.050;2023-12-07T05:00:03;6.23;;;4.20;;
37411;SDS011;23278;52.110;6.050;2023-12-07T05:02:32;6.00;;;4.03;;
37411;SDS011;23278;52.110;6.050;2023-12-07T05:04:58;6.77;;;4.30;;
37411;SDS011;23278;52.110;6.050;2023-12-07T05:07:24;5.47;;;3.97;;
37411;SDS011;23278;52.110;6.050;2023-12-07T05:09:50;4.97;;;3.13;;
37411;SDS011;23278;52.110;6.050;2023-12-07T05:12:16;5.97;;;3.43;;
37411;SDS011;23278;52.110;6.050;2023-12-07T05:14:42;6.63;;;4.37;;
37411;SDS011;23278;52.110;6.050;2023-12-07T05:17:09;5.73;;;4.90;;
37411;SDS011;23278;52.110;6.050;2023-12-07T05:19:34;6.70;;;4.93;;
37411;SDS011;23278;52.110;6.050;2023-12-07T05:22:00;8.97;;;5.60;;
37411;SDS011;23278;52.110;6.050;2023-12-07T05:24:27;6.23;;;4.50;;
37411;SDS011;23278;52.110;6.050;2023-12-07T05:26:53;4.30;;;3.07;;
37411;SDS011;23278;52.110;6.050;2023-12-07T05:29:19;7.57;;;4.73;;
37411;SDS011;23278;52.110;6.050;2023-12-07T05:31:47;6.43;;;4.20;;
37411;SDS011;23278;52.110;6.050;2023-12-07T05:34:15;5.90;;;3.90;;
37411;SDS011;23278;52.110;6.050;2023-12-07T05:36:41;6.17;;;4.00;;
37411;SDS011;23278;52.110;6.050;2023-12-07T05:39:07;7.07;;;5.13;;
37411;SDS011;23278;52.110;6.050;2023-12-07T05:41:33;5.37;;;3.73;;
37411;SDS011;23278;52.110;6.050;2023-12-07T05:43:59;7.50;;;4.83;;
37411;SDS011;23278;52.110;6.050;2023-12-07T05:46:25;5.67;;;3.93;;
37411;SDS011;23278;52.110;6.050;2023-12-07T05:48:51;7.17;;;4.50;;
37411;SDS011;23278;52.110;6.050;2023-12-07T05:51:17;4.57;;;3.90;;
37411;SDS011;23278;52.110;6.050;2023-12-07T05:53:45;7.23;;;3.90;;
37411;SDS011;23278;52.110;6.050;2023-12-07T05:56:11;4.97;;;4.23;;
37411;SDS011;23278;52.110;6.050;2023-12-07T05:58:37;6.63;;;4.93;;
37411;SDS011;23278;52.110;6.050;2023-12-07T06:01:03;6.33;;;4.40;;
37411;SDS011;23278;52.110;6.050;2023-12-07T06:03:30;5.60;;;4.53;;
37411;SDS011;23278;52.110;6.050;2023-12-07T06:05:57;6.30;;;4.10;;
37411;SDS011;23278;52.110;6.050;2023-12-07T06:08:23;5.27;;;4.07;;
37411;SDS011;23278;52.110;6.050;2023-12-07T06:10:49;5.97;;;3.63;;
37411;SDS011;23278;52.110;6.050;2023-12-07T06:13:15;7.33;;;5.17;;
37411;SDS011;23278;52.110;6.050;2023-12-07T06:15:41;5.40;;;3.77;;
37411;SDS011;23278;52.110;6.050;2023-12-07T06:18:07;9.40;;;4.50;;
37411;SDS011;23278;52.110;6.050;2023-12-07T06:20:33;9.70;;;4.13;;
37411;SDS011;23278;52.110;6.050;2023-12-07T06:23:00;10.07;;;4.50;;
37411;SDS011;23278;52.110;6.050;2023-12-07T06:25:27;6.33;;;4.43;;
37411;SDS011;23278;52.110;6.050;2023-12-07T06:27:54;7.47;;;4.67;;
37411;SDS011;23278;52.110;6.050;2023-12-07T06:30:21;6.20;;;4.50;;
37411;SDS011;23278;52.110;6.050;2023-12-07T06:32:47;7.33;;;5.43;;
37411;SDS011;23278;52.110;6.050;2023-12-07T06:35:13;10.27;;;6.37;;
37411;SDS011;23278;52.110;6.050;2023-12-07T06:37:39;9.87;;;6.83;;
37411;SDS011;23278;52.110;6.050;2023-12-07T06:40:07;10.90;;;6.67;;
37411;SDS011;23278;52.110;6.050;2023-12-07T06:42:36;7.17;;;5.57;;
37411;SDS011;23278;52.110;6.050;2023-12-07T06:45:02;7.00;;;5.40;;
37411;SDS011;23278;52.110;6.050;2023-12-07T06:47:30;8.60;;;5.57;;
37411;SDS011;23278;52.110;6.050;2023-12-07T06:49:56;11.87;;;8.27;;
37411;SDS011;23278;52.110;6.050;2023-12-07T06:52:22;15.73;;;9.33;;
37411;SDS011;23278;52.110;6.050;2023-12-07T06:54:48;16.40;;;10.87;;
37411;SDS011;23278;52.110;6.050;2023-12-07T06:57:14;16.87;;;10.63;;
37411;SDS011;23278;52.110;6.050;2023-12-07T06:59:40;13.73;;;10.27;;
37411;SDS011;23278;52.110;6.050;2023-12-07T07:02:06;17.20;;;10.50;;
37411;SDS011;23278;52.110;6.050;2023-12-07T07:04:32;18.17;;;11.13;;
37411;SDS011;23278;52.110;6.050;2023-12-07T07:06:58;20.83;;;11.07;;
37411;SDS011;23278;52.110;6.050;2023-12-07T07:09:24;20.93;;;11.97;;
37411;SDS011;23278;52.110;6.050;2023-12-07T07:11:50;16.63;;;11.67;;
37411;SDS011;23278;52.110;6.050;2023-12-07T07:14:16;14.83;;;10.70;;
37411;SDS011;23278;52.110;6.050;2023-12-07T07:16:42;16.57;;;11.70;;
37411;SDS011;23278;52.110;6.050;2023-12-07T07:19:08;14.60;;;10.77;;
37411;SDS011;23278;52.110;6.050;2023-12-07T07:21:35;12.93;;;9.18;;
37411;SDS011;23278;52.110;6.050;2023-12-07T07:24:01;17.27;;;9.23;;
37411;SDS011;23278;52.110;6.050;2023-12-07T07:26:27;15.75;;;11.20;;
37411;SDS011;23278;52.110;6.050;2023-12-07T07:28:53;16.63;;;11.05;;
37411;SDS011;23278;52.110;6.050;2023-12-07T07:31:19;19.98;;;11.38;;
37411;SDS011;23278;52.110;6.050;2023-12-07T07:33:45;20.87;;;13.50;;
37411;SDS011;23278;52.110;6.050;2023-12-07T07:36:15;18.40;;;13.80;;
37411;SDS011;23278;52.110;6.050;2023-12-07T07:38:41;17.50;;;12.63;;
37411;SDS011;23278;52.110;6.050;2023-12-07T07:41:09;13.07;;;9.97;;
37411;SDS011;23278;52.110;6.050;2023-12-07T07:43:36;12.80;;;9.70;;
37411;SDS011;23278;52.110;6.050;2023-12-07T07:46:03;17.10;;;11.13;;
37411;SDS011;23278;52.110;6.050;2023-12-07T07:48:29;18.02;;;10.52;;
37411;SDS011;23278;52.110;6.050;2023-12-07T07:50:55;14.33;;;11.30;;
37411;SDS011;23278;52.110;6.050;2023-12-07T07:53:22;14.57;;;10.88;;
37411;SDS011;23278;52.110;6.050;2023-12-07T07:55:47;17.67;;;12.10;;
37411;SDS011;23278;52.110;6.050;2023-12-07T07:58:13;14.70;;;10.20;;
37411;SDS011;23278;52.110;6.050;2023-12-07T08:00:39;13.20;;;10.45;;
37411;SDS011;23278;52.110;6.050;2023-12-07T08:03:05;13.20;;;11.18;;
37411;SDS011;23278;52.110;6.050;2023-12-07T08:05:32;22.70;;;14.13;;
37411;SDS011;23278;52.110;6.050;2023-12-07T08:07:58;13.63;;;10.65;;
37411;SDS011;23278;52.110;6.050;2023-12-07T08:10:24;17.63;;;11.73;;
37411;SDS011;23278;52.110;6.050;2023-12-07T08:12:50;16.33;;;11.20;;
37411;SDS011;23278;52.110;6.050;2023-12-07T08:15:16;12.93;;;9.80;;
37411;SDS011;23278;52.110;6.050;2023-12-07T08:17:42;14.83;;;10.13;;
37411;SDS011;23278;52.110;6.050;2023-12-07T08:20:08;13.70;;;11.27;;
37411;SDS011;23278;52.110;6.050;2023-12-07T08:22:36;16.10;;;12.48;;
37411;SDS011;23278;52.110;6.050;2023-12-07T08:25:03;15.27;;;11.73;;
37411;SDS011;23278;52.110;6.050;2023-12-07T08:27:31;14.48;;;11.63;;
37411;SDS011;23278;52.110;6.050;2023-12-07T08:29:58;19.33;;;14.13;;
37411;SDS011;23278;52.110;6.050;2023-12-07T08:32:24;17.63;;;13.17;;
37411;SDS011;23278;52.110;6.050;2023-12-07T08:34:51;18.02;;;13.10;;
37411;SDS011;23278;52.110;6.050;2023-12-07T08:37:18;19.33;;;12.25;;
37411;SDS011;23278;52.110;6.050;2023-12-07T08:39:44;13.68;;;10.63;;
37411;SDS011;23278;52.110;6.050;2023-12-07T08:42:10;16.58;;;11.00;;
37411;SDS011;23278;52.110;6.050;2023-12-07T08:44:36;13.88;;;10.70;;
37411;SDS011;23278;52.110;6.050;2023-12-07T08:47:03;14.52;;;11.30;;
37411;SDS011;23278;52.110;6.050;2023-12-07T08:49:29;17.08;;;12.73;;
37411;SDS011;23278;52.110;6.050;2023-12-07T08:51:55;21.10;;;12.13;;
37411;SDS011;23278;52.110;6.050;2023-12-07T08:54:23;18.75;;;14.30;;
37411;SDS011;23278;52.110;6.050;2023-12-07T08:56:51;23.48;;;14.98;;
37411;SDS011;23278;52.110;6.050;2023-12-07T08:59:17;30.07;;;18.43;;
37411;SDS011;23278;52.110;6.050;2023-12-07T09:01:43;29.30;;;17.20;;
37411;SDS011;23278;52.110;6.050;2023-12-07T09:04:11;25.25;;;14.82;;
37411;SDS011;23278;52.110;6.050;2023-12-07T09:06:37;21.10;;;13.27;;
37411;SDS011;23278;52.110;6.050;2023-12-07T09:09:03;17.58;;;11.07;;
37411;SDS011;23278;52.110;6.050;2023-12-07T09:11:32;21.40;;;13.97;;
37411;SDS011;23278;52.110;6.050;2023-12-07T09:13:58;20.67;;;12.73;;
37411;SDS011;23278;52.110;6.050;2023-12-07T09:16:25;26.35;;;16.80;;
37411;SDS011;23278;52.110;6.050;2023-12-07T09:18:51;23.48;;;14.80;;
37411;SDS011;23278;52.110;6.050;2023-12-07T09:21:17;21.25;;;13.32;;
37411;SDS011;23278;52.110;6.050;2023-12-07T09:23:43;23.00;;;15.33;;
37411;SDS011;23278;52.110;6.050;2023-12-07T09:26:10;24.13;;;14.50;;
37411;SDS011;23278;52.110;6.050;2023-12-07T09:28:36;23.15;;;14.27;;
37411;SDS011;23278;52.110;6.050;2023-12-07T09:31:02;22.52;;;14.45;;
37411;SDS011;23278;52.110;6.050;2023-12-07T09:33:28;20.23;;;14.10;;
37411;SDS011;23278;52.110;6.050;2023-12-07T09:35:54;19.90;;;13.40;;
37411;SDS011;23278;52.110;6.050;2023-12-07T09:38:20;21.13;;;13.48;;
37411;SDS011;23278;52.110;6.050;2023-12-07T09:40:46;23.63;;;16.20;;
37411;SDS011;23278;52.110;6.050;2023-12-07T09:43:17;23.33;;;14.90;;
37411;SDS011;23278;52.110;6.050;2023-12-07T09:45:43;18.05;;;12.50;;
37411;SDS011;23278;52.110;6.050;2023-12-07T09:48:10;25.52;;;14.73;;
37411;SDS011;23278;52.110;6.050;2023-12-07T09:50:36;21.10;;;12.65;;
37411;SDS011;23278;52.110;6.050;2023-12-07T09:53:02;17.02;;;11.95;;
37411;SDS011;23278;52.110;6.050;2023-12-07T09:55:28;16.17;;;11.38;;
37411;SDS011;23278;52.110;6.050;2023-12-07T09:57:56;35.85;;;12.60;;
37411;SDS011;23278;52.110;6.050;2023-12-07T10:00:23;15.50;;;10.75;;
37411;SDS011;23278;52.110;6.050;2023-12-07T10:02:49;31.35;;;12.02;;
37411;SDS011;23278;52.110;6.050;2023-12-07T10:05:16;17.58;;;11.32;;
37411;SDS011;23278;52.110;6.050;2023-12-07T10:07:46;15.85;;;11.07;;
37411;SDS011;23278;52.110;6.050;2023-12-07T10:10:13;14.57;;;11.67;;
37411;SDS011;23278;52.110;6.050;2023-12-07T10:15:23;17.02;;;10.50;;
37411;SDS011;23278;52.110;6.050;2023-12-07T10:17:51;12.27;;;9.00;;
37411;SDS011;23278;52.110;6.050;2023-12-07T10:20:23;16.15;;;10.20;;
37411;SDS011;23278;52.110;6.050;2023-12-07T10:23:08;15.05;;;9.95;;
37411;SDS011;23278;52.110;6.050;2023-12-07T10:25:43;14.52;;;10.40;;
37411;SDS011;23278;52.110;6.050;2023-12-07T10:28:09;17.10;;;10.60;;
37411;SDS011;23278;52.110;6.050;2023-12-07T10:30:42;20.88;;;13.88;;
37411;SDS011;23278;52.110;6.050;2023-12-07T10:33:09;17.85;;;12.43;;
37411;SDS011;23278;52.110;6.050;2023-12-07T10:35:39;16.08;;;11.40;;
37411;SDS011;23278;52.110;6.050;2023-12-07T10:38:06;18.98;;;12.55;;
37411;SDS011;23278;52.110;6.050;2023-12-07T10:40:32;15.82;;;12.13;;
37411;SDS011;23278;52.110;6.050;2023-12-07T10:42:58;13.40;;;9.23;;
37411;SDS011;23278;52.110;6.050;2023-12-07T10:45:26;18.88;;;10.90;;
37411;SDS011;23278;52.110;6.050;2023-12-07T10:47:57;14.88;;;9.88;;
37411;SDS011;23278;52.110;6.050;2023-12-07T10:50:34;13.50;;;9.70;;
37411;SDS011;23278;52.110;6.050;2023-12-07T10:53:04;16.08;;;10.30;;
37411;SDS011;23278;52.110;6.050;2023-12-07T10:55:55;12.20;;;8.35;;
37411;SDS011;23278;52.110;6.050;2023-12-07T11:00:51;13.20;;;8.02;;
37411;SDS011;23278;52.110;6.050;2023-12-07T11:03:18;11.15;;;7.63;;
37411;SDS011;23278;52.110;6.050;2023-12-07T11:05:44;17.48;;;9.90;;
37411;SDS011;23278;52.110;6.050;2023-12-07T11:08:15;14.30;;;9.55;;
37411;SDS011;23278;52.110;6.050;2023-12-07T11:13:47;22.70;;;14.55;;
37411;SDS011;23278;52.110;6.050;2023-12-07T11:16:28;18.70;;;12.48;;
37411;SDS011;23278;52.110;6.050;2023-12-07T11:19:02;25.23;;;13.95;;
37411;SDS011;23278;52.110;6.050;2023-12-07T11:21:29;18.35;;;10.80;;
37411;SDS011;23278;52.110;6.050;2023-12-07T11:23:56;14.50;;;9.35;;
37411;SDS011;23278;52.110;6.050;2023-12-07T11:26:26;16.85;;;8.88;;
37411;SDS011;23278;52.110;6.050;2023-12-07T11:28:53;14.50;;;8.82;;
37411;SDS011;23278;52.110;6.050;2023-12-07T11:31:21;14.98;;;8.05;;
37411;SDS011;23278;52.110;6.050;2023-12-07T11:33:47;11.25;;;7.50;;
37411;SDS011;23278;52.110;6.050;2023-12-07T11:36:13;10.57;;;6.32;;
37411;SDS011;23278;52.110;6.050;2023-12-07T11:41:44;14.48;;;8.48;;
37411;SDS011;23278;52.110;6.050;2023-12-07T11:44:11;11.93;;;7.25;;
37411;SDS011;23278;52.110;6.050;2023-12-07T11:46:37;16.10;;;9.57;;
37411;SDS011;23278;52.110;6.050;2023-12-07T11:49:03;14.35;;;8.82;;
37411;SDS011;23278;52.110;6.050;2023-12-07T11:51:30;14.13;;;9.02;;
37411;SDS011;23278;52.110;6.050;2023-12-07T11:53:56;13.80;;;9.13;;
37411;SDS011;23278;52.110;6.050;2023-12-07T11:56:22;14.02;;;9.02;;
37411;SDS011;23278;52.110;6.050;2023-12-07T11:58:48;13.57;;;7.57;;
37411;SDS011;23278;52.110;6.050;2023-12-07T12:01:14;17.75;;;9.55;;
37411;SDS011;23278;52.110;6.050;2023-12-07T12:03:42;16.25;;;9.23;;
37411;SDS011;23278;52.110;6.050;2023-12-07T12:06:08;10.82;;;6.65;;
37411;SDS011;23278;52.110;6.050;2023-12-07T12:08:36;15.00;;;8.35;;
37411;SDS011;23278;52.110;6.050;2023-12-07T12:11:01;14.75;;;8.82;;
37411;SDS011;23278;52.110;6.050;2023-12-07T12:13:28;16.85;;;10.70;;
37411;SDS011;23278;52.110;6.050;2023-12-07T12:16:01;17.60;;;10.55;;
37411;SDS011;23278;52.110;6.050;2023-12-07T12:18:28;20.20;;;10.98;;
37411;SDS011;23278;52.110;6.050;2023-12-07T12:20:54;14.82;;;9.13;;
37411;SDS011;23278;52.110;6.050;2023-12-07T12:23:20;18.55;;;10.95;;
37411;SDS011;23278;52.110;6.050;2023-12-07T12:25:46;20.80;;;10.63;;
37411;SDS011;23278;52.110;6.050;2023-12-07T12:28:17;22.05;;;11.10;;
37411;SDS011;23278;52.110;6.050;2023-12-07T12:30:46;22.02;;;11.77;;
37411;SDS011;23278;52.110;6.050;2023-12-07T12:33:13;16.55;;;10.05;;
37411;SDS011;23278;52.110;6.050;2023-12-07T12:35:39;19.83;;;10.52;;
37411;SDS011;23278;52.110;6.050;2023-12-07T12:38:12;20.27;;;11.25;;
37411;SDS011;23278;52.110;6.050;2023-12-07T12:40:38;20.50;;;11.90;;
37411;SDS011;23278;52.110;6.050;2023-12-07T12:43:06;27.60;;;15.55;;
37411;SDS011;23278;52.110;6.050;2023-12-07T12:45:33;22.85;;;13.10;;
37411;SDS011;23278;52.110;6.050;2023-12-07T12:47:59;29.52;;;16.27;;
37411;SDS011;23278;52.110;6.050;2023-12-07T12:50:35;33.50;;;17.15;;
37411;SDS011;23278;52.110;6.050;2023-12-07T12:53:02;29.27;;;16.20;;
37411;SDS011;23278;52.110;6.050;2023-12-07T12:55:30;31.92;;;18.05;;
37411;SDS011;23278;52.110;6.050;2023-12-07T12:57:58;24.20;;;15.27;;
37411;SDS011;23278;52.110;6.050;2023-12-07T13:00:24;28.10;;;15.02;;
37411;SDS011;23278;52.110;6.050;2023-12-07T13:02:50;28.05;;;16.02;;
37411;SDS011;23278;52.110;6.050;2023-12-07T13:05:16;30.02;;;17.27;;
37411;SDS011;23278;52.110;6.050;2023-12-07T13:07:43;26.63;;;15.80;;
37411;SDS011;23278;52.110;6.050;2023-12-07T13:10:10;32.75;;;19.25;;
37411;SDS011;23278;52.110;6.050;2023-12-07T13:12:36;29.88;;;15.93;;
37411;SDS011;23278;52.110;6.050;2023-12-07T13:15:02;35.75;;;19.27;;
37411;SDS011;23278;52.110;6.050;2023-12-07T13:17:29;31.58;;;17.38;;
37411;SDS011;23278;52.110;6.050;2023-12-07T13:19:54;33.80;;;19.15;;
37411;SDS011;23278;52.110;6.050;2023-12-07T13:22:20;29.00;;;17.70;;
37411;SDS011;23278;52.110;6.050;2023-12-07T13:24:47;40.22;;;20.50;;
37411;SDS011;23278;52.110;6.050;2023-12-07T13:27:13;28.23;;;16.20;;
37411;SDS011;23278;52.110;6.050;2023-12-07T13:29:41;31.52;;;19.63;;
37411;SDS011;23278;52.110;6.050;2023-12-07T13:32:06;39.38;;;21.60;;
37411;SDS011;23278;52.110;6.050;2023-12-07T13:34:33;33.45;;;19.38;;
37411;SDS011;23278;52.110;6.050;2023-12-07T13:36:59;27.20;;;17.23;;
37411;SDS011;23278;52.110;6.050;2023-12-07T13:39:25;26.88;;;15.88;;
37411;SDS011;23278;52.110;6.050;2023-12-07T13:41:52;37.83;;;21.00;;
37411;SDS011;23278;52.110;6.050;2023-12-07T13:44:18;32.83;;;18.77;;
37411;SDS011;23278;52.110;6.050;2023-12-07T13:46:45;37.03;;;20.23;;
37411;SDS011;23278;52.110;6.050;2023-12-07T13:49:11;30.58;;;18.00;;
37411;SDS011;23278;52.110;6.050;2023-12-07T13:51:39;29.70;;;17.27;;
37411;SDS011;23278;52.110;6.050;2023-12-07T13:54:06;29.75;;;18.38;;
37411;SDS011;23278;52.110;6.050;2023-12-07T13:56:34;26.20;;;15.95;;
37411;SDS011;23278;52.110;6.050;2023-12-07T13:59:00;25.58;;;16.02;;
37411;SDS011;23278;52.110;6.050;2023-12-07T14:01:26;27.50;;;16.50;;
37411;SDS011;23278;52.110;6.050;2023-12-07T14:03:52;25.58;;;16.73;;
37411;SDS011;23278;52.110;6.050;2023-12-07T14:06:22;30.55;;;17.80;;
37411;SDS011;23278;52.110;6.050;2023-12-07T14:08:52;30.63;;;19.70;;
37411;SDS011;23278;52.110;6.050;2023-12-07T14:11:18;32.30;;;19.58;;
37411;SDS011;23278;52.110;6.050;2023-12-07T14:13:44;32.13;;;19.10;;
37411;SDS011;23278;52.110;6.050;2023-12-07T14:16:14;31.15;;;19.23;;
37411;SDS011;23278;52.110;6.050;2023-12-07T14:18:40;29.50;;;17.67;;
37411;SDS011;23278;52.110;6.050;2023-12-07T14:21:06;29.30;;;16.80;;
37411;SDS011;23278;52.110;6.050;2023-12-07T14:23:32;30.20;;;19.38;;
37411;SDS011;23278;52.110;6.050;2023-12-07T14:25:58;31.15;;;18.65;;
37411;SDS011;23278;52.110;6.050;2023-12-07T14:28:24;28.30;;;17.95;;
37411;SDS011;23278;52.110;6.050;2023-12-07T14:30:50;31.45;;;19.38;;
37411;SDS011;23278;52.110;6.050;2023-12-07T14:33:21;29.25;;;17.13;;
37411;SDS011;23278;52.110;6.050;2023-12-07T14:35:47;33.53;;;20.60;;
37411;SDS011;23278;52.110;6.050;2023-12-07T14:38:14;28.77;;;18.05;;
37411;SDS011;23278;52.110;6.050;2023-12-07T14:40:40;32.00;;;18.70;;
37411;SDS011;23278;52.110;6.050;2023-12-07T14:43:06;30.17;;;18.63;;
37411;SDS011;23278;52.110;6.050;2023-12-07T14:45:32;37.38;;;21.05;;